Time;durP1;ratioP1;P1;durP2;ratioP2;P2;SDS_P1;SDS_P2;PMS_P1;PMS_P2;Temp;Humidity;BMP_temperature;BMP_pressure;BME280_temperature;BME280_humidity;BME280_pressure;Samples;Min_cycle;Max_cycle;Signal;HPM_P1;HPM_P2
2022/12/22 03:27:10;;;;;;;27.98;7.97;;;;;;;4.53;76.25;101105.75;5022642;28;20118;-77
2022/12/22 03:29:35;;;;;;;24.80;7.13;;;;;;;4.39;76.41;101088.69;5060237;28;20064;-77
2022/12/22 03:32:00;;;;;;;18.20;7.55;;;;;;;4.20;76.48;101061.22;5055702;28;20028;-77
2022/12/22 03:34:26;;;;;;;25.60;8.60;;;;;;;4.66;76.40;101102.44;5050245;28;20025;-79
2022/12/22 03:36:51;;;;;;;16.92;6.82;;;;;;;4.80;76.09;101099.09;5049844;28;20013;-77
2022/12/22 03:39:17;;;;;;;14.43;7.88;;;;;;;4.87;75.60;101095.16;5050002;28;20114;-75
2022/12/22 03:47:10;;;;;;;23.33;7.05;;;;;;;4.95;75.10;101093.00;5052440;28;20040;-77
2022/12/22 03:49:35;;;;;;;16.38;6.32;;;;;;;5.07;74.83;101095.03;5052036;28;20045;-76
2022/12/22 03:52:01;;;;;;;20.50;6.57;;;;;;;5.08;74.48;101088.75;5050201;28;20021;-78
2022/12/22 03:54:26;;;;;;;9.07;6.45;;;;;;;5.11;74.67;101093.91;5050873;28;20083;-78
2022/12/22 03:56:52;;;;;;;18.08;7.43;;;;;;;5.16;74.16;101096.38;5050503;28;20044;-77
2022/12/22 03:59:18;;;;;;;27.05;7.22;;;;;;;5.21;73.93;101092.50;5052198;28;20455;-78
2022/12/22 04:01:46;;;;;;;22.15;8.30;;;;;;;5.00;74.03;101079.41;5050823;28;20036;-77
2022/12/22 04:04:14;;;;;;;14.45;6.97;;;;;;;5.00;74.85;101090.09;5051042;28;20044;-78
2022/12/22 04:06:40;;;;;;;14.95;7.70;;;;;;;4.78;75.09;101080.50;5050895;28;20530;-77
2022/12/22 04:09:05;;;;;;;21.80;6.90;;;;;;;4.75;75.53;101091.31;5049691;28;20037;-77
2022/12/22 04:14:15;;;;;;;18.88;7.38;;;;;;;4.71;76.19;101078.25;5049033;28;20098;-77
2022/12/22 04:16:41;;;;;;;28.65;8.70;;;;;;;4.82;75.72;101076.75;5062962;28;20493;-75
2022/12/22 04:19:07;;;;;;;26.98;9.27;;;;;;;4.98;75.30;101082.19;5048672;28;20048;-74
2022/12/22 04:21:33;;;;;;;22.98;10.00;;;;;;;4.87;74.68;101057.88;5050170;28;20029;-75
2022/12/22 04:23:58;;;;;;;33.28;9.18;;;;;;;5.13;74.74;101085.84;5052527;28;20064;-75
2022/12/22 04:26:24;;;;;;;35.83;9.70;;;;;;;5.15;73.99;101090.16;5052520;28;20033;-75
2022/12/22 04:28:51;;;;;;;31.98;9.30;;;;;;;5.10;73.91;101092.22;5052613;28;20056;-77
2022/12/22 04:31:16;;;;;;;31.23;9.93;;;;;;;5.12;73.87;101095.66;5061376;28;20422;-77
2022/12/22 04:33:42;;;;;;;36.78;8.80;;;;;;;5.07;73.60;101092.38;5060617;28;20105;-75
2022/12/22 04:36:08;;;;;;;21.40;8.07;;;;;;;5.13;73.25;101086.72;5054256;28;20427;-75
2022/12/22 04:38:34;;;;;;;25.27;9.38;;;;;;;5.10;73.19;101091.34;5052366;28;20405;-75
2022/12/22 04:40:59;;;;;;;25.83;8.93;;;;;;;4.88;73.25;101055.13;5052340;28;20047;-76
2022/12/22 04:43:25;;;;;;;20.73;9.77;;;;;;;5.16;73.17;101091.91;5052636;28;20622;-77
2022/12/22 04:45:54;;;;;;;22.92;10.73;;;;;;;5.16;72.73;101088.38;5052014;28;20087;-75
2022/12/22 04:48:21;;;;;;;15.65;10.93;;;;;;;5.16;72.97;101091.03;5051905;28;20508;-76
2022/12/22 04:50:53;;;;;;;23.73;10.30;;;;;;;5.10;72.88;101092.22;5051803;28;20484;-77
2022/12/22 04:53:19;;;;;;;28.98;11.40;;;;;;;5.13;72.60;101085.84;5051800;28;20064;-75
2022/12/22 04:55:56;;;;;;;30.23;11.68;;;;;;;4.99;72.39;101089.22;5051847;28;20061;-76
2022/12/22 04:58:22;;;;;;;29.88;13.30;;;;;;;4.88;73.22;101087.13;5052034;28;20032;-76
2022/12/22 05:00:47;;;;;;;35.80;12.13;;;;;;;4.87;73.24;101093.38;5051910;28;20128;-78
2022/12/22 05:03:13;;;;;;;29.40;13.50;;;;;;;4.88;73.32;101091.56;5051716;28;20118;-77
2022/12/22 05:05:38;;;;;;;35.10;12.52;;;;;;;4.87;73.59;101084.50;5051755;28;20506;-77
2022/12/22 05:08:04;;;;;;;33.72;13.60;;;;;;;4.89;73.72;101090.66;5053574;28;20033;-76
2022/12/22 05:10:30;;;;;;;42.00;14.45;;;;;;;4.80;73.85;101088.44;5053752;28;20028;-76
2022/12/22 05:12:56;;;;;;;40.75;14.45;;;;;;;4.84;73.71;101090.88;5051953;28;20499;-77
2022/12/22 05:15:33;;;;;;;51.13;16.42;;;;;;;4.81;73.84;101083.03;5050998;28;20200;-75
2022/12/22 05:17:59;;;;;;;64.00;16.42;;;;;;;4.80;73.61;101088.44;5049630;28;20341;-76
2022/12/22 05:20:26;;;;;;;36.70;14.50;;;;;;;4.79;73.96;101092.91;5051585;28;20066;-77
2022/12/22 05:22:51;;;;;;;50.13;16.15;;;;;;;4.75;73.97;101090.47;5051836;28;20035;-80
2022/12/22 05:25:17;;;;;;;48.75;16.27;;;;;;;4.79;74.51;101098.25;5051879;28;20029;-78
2022/12/22 05:27:43;;;;;;;40.22;15.77;;;;;;;4.74;74.12;101083.44;5050947;28;20064;-75
2022/12/22 05:30:09;;;;;;;36.75;16.27;;;;;;;4.88;74.08;101088.91;5051133;28;20113;-75
2022/12/22 05:32:35;;;;;;;58.15;17.40;;;;;;;4.76;74.27;101063.75;5053969;28;20033;-76
2022/12/22 05:35:02;;;;;;;64.97;19.23;;;;;;;5.03;73.63;101101.47;5063471;28;20028;-77
2022/12/22 05:37:28;;;;;;;50.45;19.17;;;;;;;5.08;73.51;101095.88;5054146;28;20036;-75
2022/12/22 05:39:53;;;;;;;68.55;20.00;;;;;;;4.94;73.15;101075.28;5052262;28;20024;-77
2022/12/22 05:42:34;;;;;;;47.70;18.67;;;;;;;5.16;73.09;101107.91;5052008;28;20051;-77
2022/12/22 05:45:21;;;;;;;54.72;18.52;;;;;;;5.18;73.31;101100.66;5049500;28;20021;-78
2022/12/22 05:47:49;;;;;;;99.07;22.02;;;;;;;5.18;72.92;101105.13;5051140;28;20377;-76
2022/12/22 05:50:22;;;;;;;63.40;18.27;;;;;;;5.17;72.70;101098.09;5050571;28;20057;-77
2022/12/22 05:52:48;;;;;;;69.70;19.73;;;;;;;5.24;72.86;101099.47;5050330;28;20025;-78
2022/12/22 05:55:14;;;;;;;48.25;19.27;;;;;;;4.99;72.48;101072.34;5050554;28;20116;-76
2022/12/22 05:57:41;;;;;;;57.45;19.65;;;;;;;5.24;72.73;101113.69;5050404;28;20078;-78
2022/12/22 06:00:09;;;;;;;43.55;19.23;;;;;;;5.30;72.70;101116.03;5050438;28;20040;-76
2022/12/22 06:02:35;;;;;;;67.03;18.90;;;;;;;4.94;72.93;101053.94;5050228;28;20568;-75
2022/12/22 06:05:00;;;;;;;59.10;19.35;;;;;;;5.28;72.62;101109.94;5050230;28;20029;-77
2022/12/22 06:07:26;;;;;;;59.83;18.65;;;;;;;5.24;72.71;101111.00;5050468;28;20725;-77
2022/12/22 06:09:51;;;;;;;73.13;28.02;;;;;;;5.25;73.01;101110.09;5050047;28;20051;-75
2022/12/22 06:12:17;;;;;;;58.58;20.60;;;;;;;5.30;72.98;101121.38;5049816;28;20120;-74
2022/12/22 06:14:42;;;;;;;53.15;19.60;;;;;;;5.06;73.14;101074.63;5049969;28;20033;-77
2022/12/22 06:17:08;;;;;;;59.15;17.75;;;;;;;5.41;73.30;101121.66;5050135;28;20380;-76
2022/12/22 06:19:33;;;;;;;61.90;19.95;;;;;;;5.34;73.45;101095.41;5049824;28;20032;-75
2022/12/22 06:21:59;;;;;;;58.30;17.52;;;;;;;5.53;72.69;101117.50;5049559;28;20492;-75
2022/12/22 06:24:24;;;;;;;66.85;18.38;;;;;;;5.65;72.52;101121.31;5049697;28;20406;-76
2022/12/22 06:26:50;;;;;;;74.30;20.92;;;;;;;5.72;72.79;101130.75;5049507;28;20029;-76
2022/12/22 06:29:15;;;;;;;51.15;18.92;;;;;;;5.57;72.53;101083.50;5049610;28;20112;-77
2022/12/22 06:31:41;;;;;;;47.55;18.92;;;;;;;5.89;72.61;101120.03;5049649;28;20025;-76
2022/12/22 06:34:08;;;;;;;75.30;22.35;;;;;;;6.01;72.39;101130.06;5049549;28;20029;-75
2022/12/22 06:36:34;;;;;;;51.13;18.77;;;;;;;6.04;72.07;101113.88;5055338;28;20044;-76
2022/12/22 06:39:00;;;;;;;40.50;16.17;;;;;;;6.10;71.46;101129.53;5056836;28;20029;-75
2022/12/22 06:44:09;;;;;;;42.80;14.77;;;;;;;6.25;71.54;101133.19;5049208;28;20469;-76
2022/12/22 06:46:34;;;;;;;36.45;13.73;;;;;;;6.31;71.52;101144.38;5049111;28;20111;-75
2022/12/22 06:49:00;;;;;;;34.88;14.90;;;;;;;6.37;71.09;101122.66;5049403;28;20056;-76
2022/12/22 06:51:25;;;;;;;27.27;13.20;;;;;;;6.50;71.05;101129.06;5049318;28;20098;-76
2022/12/22 06:53:50;;;;;;;39.60;15.75;;;;;;;6.51;70.84;101124.59;5049228;28;20526;-76
2022/12/22 06:56:16;;;;;;;29.88;14.55;;;;;;;6.60;70.56;101133.88;5049122;28;20021;-76
2022/12/22 06:58:41;;;;;;;43.33;15.02;;;;;;;6.66;70.71;101138.88;5049380;28;20033;-76
2022/12/22 07:01:07;;;;;;;43.90;15.65;;;;;;;6.61;70.44;101103.50;5049804;28;20074;-77
2022/12/22 07:03:32;;;;;;;42.50;17.05;;;;;;;6.87;70.37;101140.31;5049240;28;20025;-76
2022/12/22 07:05:57;;;;;;;28.23;14.35;;;;;;;6.96;70.39;101131.75;5049235;28;20412;-75
2022/12/22 07:08:23;;;;;;;39.60;14.88;;;;;;;7.08;69.99;101137.25;5049272;28;20666;-76
2022/12/22 07:10:57;;;;;;;32.08;13.45;;;;;;;7.18;68.95;101126.00;5049305;28;20028;-76
2022/12/22 07:13:28;;;;;;;36.10;15.25;;;;;;;7.29;69.12;101126.22;5049198;28;20113;-75
2022/12/22 07:15:54;;;;;;;36.28;16.58;;;;;;;7.37;69.22;101132.81;5049228;28;20439;-74
2022/12/22 07:18:20;;;;;;;36.67;13.55;;;;;;;7.43;68.43;101132.44;5048882;28;20043;-75
2022/12/22 07:20:45;;;;;;;34.65;13.70;;;;;;;7.48;67.96;101117.00;5046269;28;20102;-75
2022/12/22 07:23:11;;;;;;;38.17;13.60;;;;;;;7.65;67.70;101126.66;5049138;28;20111;-76
2022/12/22 07:25:36;;;;;;;43.38;13.95;;;;;;;7.79;67.48;101142.75;5048644;28;20036;-75
2022/12/22 07:28:02;;;;;;;31.10;12.23;;;;;;;7.64;67.31;101099.03;5049226;28;20055;-76
2022/12/22 07:30:27;;;;;;;28.75;12.93;;;;;;;8.00;66.82;101137.88;5048751;28;20462;-76
2022/12/22 07:32:53;;;;;;;44.17;11.88;;;;;;;8.04;66.65;101134.06;5049620;28;20025;-77
2022/12/22 07:35:18;;;;;;;26.65;11.40;;;;;;;8.16;66.32;101138.66;5050092;28;20048;-75
2022/12/22 07:37:46;;;;;;;45.28;10.60;;;;;;;8.18;65.70;101134.03;5050957;28;20025;-77
2022/12/22 07:40:12;;;;;;;25.65;8.88;;;;;;;8.09;64.12;101143.53;5055828;28;20037;-76
2022/12/22 07:42:43;;;;;;;29.15;8.52;;;;;;;8.18;63.94;101142.06;5056870;28;20053;-75
2022/12/22 07:45:16;;;;;;;24.35;9.38;;;;;;;8.28;63.62;101134.34;5049285;28;20033;-75
2022/12/22 07:47:43;;;;;;;20.40;8.15;;;;;;;8.19;63.39;101136.59;5048989;28;20025;-76
2022/12/22 07:50:24;;;;;;;20.45;8.65;;;;;;;8.11;63.09;101140.72;5049527;28;20068;-75
2022/12/22 07:53:01;;;;;;;24.38;7.85;;;;;;;8.15;62.82;101147.63;5049354;28;20104;-75
2022/12/22 07:55:29;;;;;;;21.70;9.23;;;;;;;8.29;62.67;101139.59;5050229;28;20100;-75
2022/12/22 07:57:54;;;;;;;20.35;9.90;;;;;;;8.29;61.98;101139.59;5052387;28;20036;-76
2022/12/22 08:00:21;;;;;;;25.05;10.55;;;;;;;8.36;61.98;101146.28;5052423;28;20036;-76
2022/12/22 08:02:55;;;;;;;20.38;9.18;;;;;;;8.48;62.10;101145.50;5052139;28;20504;-75
2022/12/22 08:05:23;;;;;;;17.55;8.68;;;;;;;8.62;61.33;101140.09;5052273;28;20500;-76
2022/12/22 08:07:50;;;;;;;17.77;8.27;;;;;;;8.47;61.66;101106.25;5052090;28;20025;-76
2022/12/22 08:10:16;;;;;;;55.50;10.82;;;;;;;8.74;61.72;101133.94;5052164;28;20399;-76
2022/12/22 08:12:42;;;;;;;28.15;9.98;;;;;;;8.91;61.29;101127.47;5051883;28;20167;-76
2022/12/22 08:15:08;;;;;;;38.35;10.63;;;;;;;9.06;60.97;101125.56;5051952;28;20112;-75
2022/12/22 08:17:34;;;;;;;21.75;9.88;;;;;;;9.20;60.92;101112.13;5051821;28;20504;-75
2022/12/22 08:20:00;;;;;;;26.85;9.45;;;;;;;9.40;60.60;101119.66;5052760;28;20036;-76
2022/12/22 08:22:25;;;;;;;31.23;8.88;;;;;;;9.56;59.64;101111.41;5056997;28;20040;-75
2022/12/22 08:24:52;;;;;;;31.60;9.57;;;;;;;9.71;59.85;101105.81;5062949;28;20033;-77
2022/12/22 08:27:23;;;;;;;38.47;10.70;;;;;;;9.90;59.35;101107.22;5063160;28;20518;-75
2022/12/22 08:29:54;;;;;;;82.47;12.37;;;;;;;9.83;58.68;101070.03;5055504;28;20035;-76
2022/12/22 08:32:20;;;;;;;23.63;8.18;;;;;;;10.02;58.28;101068.72;5050871;28;20272;-77
2022/12/22 08:34:49;;;;;;;20.73;7.40;;;;;;;10.30;57.81;101090.81;5051985;28;20408;-75
2022/12/22 08:37:17;;;;;;;21.02;8.43;;;;;;;10.36;57.27;101084.16;5051848;28;20474;-75
2022/12/22 08:39:45;;;;;;;29.17;8.40;;;;;;;10.46;57.43;101074.41;5051921;28;20090;-76
2022/12/22 08:42:14;;;;;;;21.63;8.75;;;;;;;10.58;56.86;101073.50;5057204;28;20589;-76
2022/12/22 08:44:40;;;;;;;28.20;9.50;;;;;;;10.65;56.25;101069.38;5057878;28;20102;-76
2022/12/22 08:47:05;;;;;;;23.80;8.85;;;;;;;10.84;56.34;101074.25;5052716;28;20436;-76
2022/12/22 08:49:31;;;;;;;19.08;7.93;;;;;;;10.92;56.04;101077.22;5051528;28;20488;-75
2022/12/22 08:51:57;;;;;;;25.13;8.40;;;;;;;10.70;56.71;101040.31;5051476;28;20109;-76
2022/12/22 08:54:22;;;;;;;18.27;8.48;;;;;;;10.95;57.12;101065.38;5050041;28;20029;-75
2022/12/22 08:56:48;;;;;;;28.92;8.93;;;;;;;11.04;56.71;101062.00;5049451;28;20032;-76
2022/12/22 08:59:15;;;;;;;20.70;8.40;;;;;;;11.21;56.75;101069.63;5051442;28;20029;-76
2022/12/22 09:01:42;;;;;;;26.95;8.43;;;;;;;11.10;56.21;101026.53;5051156;28;20422;-75
2022/12/22 09:04:11;;;;;;;32.08;8.27;;;;;;;11.20;56.33;101057.13;5051226;28;20033;-75
2022/12/22 09:06:36;;;;;;;21.15;8.43;;;;;;;11.06;56.88;101051.97;5051006;28;20028;-75
2022/12/22 09:09:04;;;;;;;16.98;7.95;;;;;;;11.07;56.64;101054.50;5050793;28;20036;-76
2022/12/22 09:11:30;;;;;;;22.27;9.27;;;;;;;11.06;56.78;101043.88;5051348;28;20028;-75
2022/12/22 09:13:58;;;;;;;34.58;8.15;;;;;;;11.02;56.98;101045.09;5050951;28;20455;-76
2022/12/22 09:16:25;;;;;;;20.65;10.45;;;;;;;10.89;57.65;101012.88;5050928;28;20028;-75
2022/12/22 09:18:50;;;;;;;35.95;9.43;;;;;;;11.21;57.71;101038.19;5051151;28;20087;-76
2022/12/22 09:21:16;;;;;;;25.10;9.20;;;;;;;10.88;57.91;100995.03;5050944;28;20352;-75
2022/12/22 09:23:42;;;;;;;22.70;8.48;;;;;;;10.99;58.07;101040.78;5050804;28;20033;-75
2022/12/22 09:26:12;;;;;;;30.20;9.55;;;;;;;11.00;58.05;101021.00;5050836;28;20464;-75
2022/12/22 09:28:38;;;;;;;40.08;13.25;;;;;;;11.12;58.18;101024.56;5050657;28;20028;-76
2022/12/22 09:31:04;;;;;;;23.95;9.02;;;;;;;11.13;57.78;101000.19;5050555;28;20025;-75
2022/12/22 09:33:30;;;;;;;19.45;9.65;;;;;;;11.20;57.55;101011.34;5050396;28;20476;-76
2022/12/22 09:35:55;;;;;;;27.63;10.57;;;;;;;11.25;57.51;101011.88;5050626;28;20036;-76
2022/12/22 09:38:21;;;;;;;43.40;12.65;;;;;;;11.36;57.30;101022.66;5050087;28;20113;-76
2022/12/22 09:40:46;;;;;;;91.50;16.27;;;;;;;11.18;56.97;100981.88;5050811;28;20477;-74
2022/12/22 09:43:15;;;;;;;80.40;15.65;;;;;;;11.43;56.24;101011.28;5052796;28;20449;-75
2022/12/22 09:45:41;;;;;;;106.63;20.70;;;;;;;11.65;56.29;101014.97;5057811;28;20420;-75
2022/12/22 09:48:11;;;;;;;29.00;12.20;;;;;;;11.81;55.53;101002.88;5055568;28;20032;-75
2022/12/22 09:50:38;;;;;;;31.52;10.15;;;;;;;11.87;55.17;101007.75;5050243;28;20399;-75
2022/12/22 09:53:06;;;;;;;115.22;18.13;;;;;;;11.92;55.38;101005.56;5050076;28;20143;-76
2022/12/22 09:55:39;;;;;;;66.97;14.25;;;;;;;11.95;54.91;100999.06;5050413;28;20036;-74
2022/12/22 09:58:33;;;;;;;31.00;9.57;;;;;;;11.94;54.36;100984.72;5050298;28;20044;-75
2022/12/22 10:01:04;;;;;;;37.38;11.35;;;;;;;11.91;54.29;101008.38;5049938;28;20427;-77
2022/12/22 10:03:33;;;;;;;22.17;10.40;;;;;;;11.99;54.51;101001.38;5050866;28;20029;-76
2022/12/22 10:06:24;;;;;;;16.42;9.65;;;;;;;11.81;53.54;100965.13;5051231;28;20029;-75
2022/12/22 10:08:52;;;;;;;30.88;11.82;;;;;;;11.70;54.28;100956.22;5050636;28;20029;-75
2022/12/22 10:11:18;;;;;;;113.38;18.98;;;;;;;11.86;54.50;100983.66;5049931;28;20025;-74
2022/12/22 10:13:44;;;;;;;27.50;10.77;;;;;;;11.96;54.40;100971.97;5049635;28;20462;-75
2022/12/22 10:16:27;;;;;;;99.85;15.88;;;;;;;12.14;54.33;100968.78;5049989;28;20021;-76
2022/12/22 10:19:13;;;;;;;120.55;20.85;;;;;;;12.31;54.28;100974.47;5048810;28;20104;-77
2022/12/22 10:21:39;;;;;;;31.92;9.82;;;;;;;12.13;53.91;100948.16;5049442;28;20041;-76
2022/12/22 10:24:17;;;;;;;26.88;10.93;;;;;;;12.30;52.98;100944.91;5049643;28;20055;-76
2022/12/22 10:26:44;;;;;;;60.75;13.20;;;;;;;12.53;53.08;100968.16;5049835;28;20036;-75
2022/12/22 10:29:13;;;;;;;32.20;9.52;;;;;;;12.49;53.16;100966.69;5049703;28;20036;-75
2022/12/22 10:32:00;;;;;;;30.35;10.00;;;;;;;12.43;52.60;100967.19;5049593;28;20021;-76
2022/12/22 10:34:26;;;;;;;58.40;12.13;;;;;;;12.49;52.35;100951.34;5049457;28;20029;-75
2022/12/22 10:36:57;;;;;;;41.67;10.45;;;;;;;12.56;52.17;100962.50;5049740;28;20029;-75
2022/12/22 10:39:34;;;;;;;21.48;11.02;;;;;;;12.66;51.98;100951.78;5049440;28;20449;-76
2022/12/22 10:42:12;;;;;;;17.15;9.13;;;;;;;12.72;51.44;100954.78;5049534;28;20031;-76
2022/12/22 10:44:39;;;;;;;31.02;9.93;;;;;;;12.65;51.76;100933.88;5049649;28;20725;-76
2022/12/22 10:47:15;;;;;;;22.38;8.90;;;;;;;12.68;52.04;100931.75;5054542;28;20061;-75
2022/12/22 10:49:46;;;;;;;23.25;8.82;;;;;;;12.57;51.96;100937.19;5054958;28;20053;-76
2022/12/22 10:52:26;;;;;;;29.55;9.73;;;;;;;12.47;52.84;100928.19;5052071;28;20036;-75
2022/12/22 10:54:51;;;;;;;31.23;8.77;;;;;;;12.46;53.51;100921.94;5050055;28;20029;-75
2022/12/22 10:57:17;;;;;;;39.90;11.50;;;;;;;12.18;55.25;100927.06;5049292;28;20514;-76
2022/12/22 11:00:20;;;;;;;19.27;7.57;;;;;;;12.11;56.56;100925.88;5049306;28;20044;-74
2022/12/22 11:02:51;;;;;;;47.65;7.78;;;;;;;11.96;57.47;100915.38;5049199;28;20504;-76
2022/12/22 11:05:17;;;;;;;20.20;6.95;;;;;;;12.06;57.94;100923.56;5049489;28;20408;-75
2022/12/22 11:07:45;;;;;;;13.25;6.30;;;;;;;11.97;58.01;100921.63;5049261;28;20170;-74
2022/12/22 11:10:25;;;;;;;25.90;8.60;;;;;;;12.05;58.26;100912.91;5048967;28;20160;-76
2022/12/22 11:13:21;;;;;;;16.83;7.22;;;;;;;12.14;58.11;100907.59;5048675;28;20102;-75
2022/12/22 11:16:06;;;;;;;27.88;7.50;;;;;;;12.41;57.52;100920.63;5049164;28;20108;-75
2022/12/22 11:19:04;;;;;;;13.98;6.22;;;;;;;12.34;57.94;100914.00;5048674;28;20495;-76
2022/12/22 11:22:06;;;;;;;9.00;5.80;;;;;;;12.31;58.11;100903.50;5026361;28;20069;-75
2022/12/22 11:24:39;;;;;;;18.35;6.55;;;;;;;12.33;58.33;100906.91;4986805;28;20145;-75
2022/12/22 11:27:23;;;;;;;;;;;;;;;12.32;58.55;100907.91;4987450;28;20037;-75
2022/12/22 11:29:57;;;;;;;35.13;7.45;;;;;;;12.36;59.37;100902.09;4986999;28;19913;-75
2022/12/22 11:32:43;;;;;;;16.55;5.78;;;;;;;12.51;58.05;100899.94;4991166;28;20046;-75
2022/12/22 11:35:26;;;;;;;25.08;6.78;;;;;;;12.52;58.54;100899.84;4991003;28;20129;-75
2022/12/22 11:37:59;;;;;;;22.00;5.95;;;;;;;12.45;58.41;100895.94;4990669;28;20022;-74
2022/12/22 11:40:32;;;;;;;30.63;11.20;;;;;;;12.25;58.52;100880.59;4990819;28;20035;-76
2022/12/22 11:43:16;;;;;;;18.60;6.93;;;;;;;12.28;58.92;100895.66;4990618;28;20065;-75
2022/12/22 11:46:03;;;;;;;15.75;6.28;;;;;;;12.29;59.43;100886.59;4990649;28;20042;-75
2022/12/22 11:48:34;;;;;;;23.42;5.18;;;;;;;12.16;59.45;100891.28;4990833;28;20057;-75
2022/12/22 11:51:49;;;;;;;15.88;5.30;;;;;;;12.19;60.60;100891.03;4994291;28;20129;-75
2022/12/22 11:54:33;;;;;;;40.28;7.72;;;;;;;12.22;60.95;100890.78;4936429;29;20051;-75
2022/12/22 11:57:33;;;;;;;40.88;8.00;;;;;;;12.35;60.83;100883.38;4932411;29;20039;-75
2022/12/22 12:00:10;;;;;;;24.10;6.32;;;;;;;12.44;61.33;100877.19;4894496;29;20487;-74
2022/12/22 12:03:22;;;;;;;30.75;7.45;;;;;;;12.48;61.69;100874.09;4894811;29;20123;-75
2022/12/22 12:06:05;;;;;;;33.20;7.38;;;;;;;12.45;61.16;100868.97;4894647;29;20123;-75
2022/12/22 12:08:36;;;;;;;28.55;8.73;;;;;;;12.42;61.99;100869.22;4894578;29;20036;-75
2022/12/22 12:11:17;;;;;;;25.83;5.82;;;;;;;12.35;62.20;100861.78;4894656;29;20056;-75
2022/12/22 12:14:03;;;;;;;19.83;5.40;;;;;;;12.14;63.41;100869.00;4894359;29;20033;-75
2022/12/22 12:16:40;;;;;;;23.13;6.30;;;;;;;11.98;63.98;100862.19;4894356;29;20109;-74
2022/12/22 12:19:44;;;;;;;18.38;6.13;;;;;;;11.91;65.01;100858.28;4894281;29;20131;-77
2022/12/22 12:22:27;;;;;;;25.13;5.50;;;;;;;11.76;65.48;100859.56;4895094;29;20131;-75
2022/12/22 12:25:03;;;;;;;11.27;5.53;;;;;;;11.53;66.24;100824.69;4895194;29;20037;-77
2022/12/22 12:27:53;;;;;;;14.73;7.00;;;;;;;11.59;66.41;100851.97;4895219;29;20075;-75
2022/12/22 12:30:20;;;;;;;16.80;6.57;;;;;;;11.73;66.38;100865.22;4915521;28;20054;-77
2022/12/22 12:32:51;;;;;;;9.98;4.43;;;;;;;11.42;66.73;100860.59;4990058;28;20041;-76
2022/12/22 12:35:34;;;;;;;14.27;5.53;;;;;;;11.29;67.00;100855.31;4989877;28;20484;-75
2022/12/22 12:38:09;;;;;;;17.30;6.65;;;;;;;11.34;67.50;100861.19;5049058;28;20061;-74
2022/12/22 12:41:01;;;;;;;14.68;5.68;;;;;;;11.39;67.42;100850.06;5051492;28;20033;-75
2022/12/22 12:43:27;;;;;;;13.85;6.22;;;;;;;11.26;67.62;100862.78;5050609;28;20029;-75
2022/12/22 12:45:54;;;;;;;9.38;5.47;;;;;;;11.26;67.83;100869.03;5051905;28;20618;-76
2022/12/22 12:48:19;;;;;;;16.83;6.38;;;;;;;11.30;68.52;100864.25;5051658;28;20481;-75
2022/12/22 12:50:55;;;;;;;14.63;6.72;;;;;;;11.35;68.38;100862.03;5051574;28;20067;-75
2022/12/22 12:53:30;;;;;;;26.73;6.80;;;;;;;11.42;67.08;100861.44;5058782;28;20345;-77
2022/12/22 12:55:57;;;;;;;16.42;6.50;;;;;;;11.35;67.09;100860.22;5058711;28;20029;-75
2022/12/22 12:58:36;;;;;;;17.10;6.53;;;;;;;11.31;67.29;100857.91;5051573;28;20028;-76
2022/12/22 13:01:08;;;;;;;18.73;7.30;;;;;;;11.38;67.24;100859.09;5051452;28;20048;-75
2022/12/22 13:03:36;;;;;;;8.35;5.13;;;;;;;11.32;66.75;100865.84;5050971;28;20057;-76
2022/12/22 13:06:03;;;;;;;22.70;6.13;;;;;;;11.32;67.16;100854.22;5051027;28;20551;-76
2022/12/22 13:08:30;;;;;;;18.10;5.75;;;;;;;11.14;68.40;100871.84;5050998;28;20094;-76
2022/12/22 13:10:55;;;;;;;25.75;6.68;;;;;;;11.13;68.79;100864.78;5050775;28;20036;-76
2022/12/22 13:13:21;;;;;;;16.35;7.10;;;;;;;11.18;68.57;100867.94;5051490;28;20086;-76
2022/12/22 13:16:06;;;;;;;28.40;9.45;;;;;;;11.07;69.47;100867.97;5050949;28;20033;-75
2022/12/22 13:18:32;;;;;;;25.52;6.47;;;;;;;11.09;68.84;100860.59;5028472;28;20708;-75
2022/12/22 13:21:01;;;;;;;20.38;5.70;;;;;;;11.00;68.23;100870.28;5028121;28;20049;-75
2022/12/22 13:23:29;;;;;;;12.52;6.30;;;;;;;10.85;68.38;100861.59;5027862;28;20057;-75
2022/12/22 13:26:01;;;;;;;17.95;6.88;;;;;;;10.92;69.12;100857.41;5028099;28;20056;-76
2022/12/22 13:28:28;;;;;;;31.83;7.97;;;;;;;10.80;69.17;100847.63;5028422;28;20040;-75
2022/12/22 13:31:03;;;;;;;17.23;7.25;;;;;;;10.84;69.58;100854.47;5028319;28;20041;-76
2022/12/22 13:33:34;;;;;;;21.42;7.22;;;;;;;10.57;69.93;100821.69;5028186;28;20029;-76
2022/12/22 13:36:01;;;;;;;19.10;7.57;;;;;;;10.78;70.17;100862.16;5027853;28;20052;-76
2022/12/22 13:38:33;;;;;;;38.05;13.43;;;;;;;10.86;70.15;100857.03;5028075;28;20033;-74
2022/12/22 13:41:12;;;;;;;62.30;16.75;;;;;;;10.63;69.49;100813.13;5011379;28;20076;-74
2022/12/22 13:43:41;;;;;;;22.05;9.65;;;;;;;10.58;69.64;100820.69;5027808;28;20133;-77
2022/12/22 13:46:08;;;;;;;58.50;13.50;;;;;;;10.52;70.40;100825.72;5027663;28;20223;-73
2022/12/22 13:48:42;;;;;;;43.30;11.25;;;;;;;10.86;69.96;100846.28;5027616;28;20176;-73
2022/12/22 13:51:31;;;;;;;35.17;11.07;;;;;;;10.87;69.85;100862.31;5027565;28;20046;-77
2022/12/22 13:54:25;;;;;;;29.40;7.63;;;;;;;10.91;69.84;100855.72;5030503;28;20139;-79
2022/12/22 13:56:55;;;;;;;33.13;10.20;;;;;;;10.83;69.96;100863.53;5015963;28;20058;-77
2022/12/22 13:59:28;;;;;;;28.70;9.75;;;;;;;10.81;70.24;100860.09;5014302;28;20030;-78
2022/12/22 14:01:59;;;;;;;33.25;10.40;;;;;;;10.73;70.06;100851.75;5008636;28;20096;-76
2022/12/22 14:04:27;;;;;;;18.23;6.65;;;;;;;10.64;70.83;100847.09;5008364;28;20046;-77
2022/12/22 14:06:53;;;;;;;44.95;9.80;;;;;;;10.62;70.77;100850.88;5007974;28;20133;-76
2022/12/22 14:09:27;;;;;;;34.80;12.07;;;;;;;10.59;71.08;100853.81;5007581;28;20160;-76
2022/12/22 14:11:58;;;;;;;33.53;10.48;;;;;;;10.57;71.42;100848.56;5008141;28;20068;-76
2022/12/22 14:14:30;;;;;;;20.40;8.25;;;;;;;10.57;71.50;100835.13;5008414;28;20038;-78
2022/12/22 14:16:59;;;;;;;18.43;7.80;;;;;;;10.59;71.36;100840.38;5009212;28;20051;-77
2022/12/22 14:19:26;;;;;;;26.35;9.18;;;;;;;10.27;71.82;100816.00;5011059;28;20272;-78
2022/12/22 14:22:07;;;;;;;33.78;9.18;;;;;;;10.50;72.25;100847.31;5012221;28;20033;-77
2022/12/22 14:24:40;;;;;;;35.53;9.40;;;;;;;10.47;72.37;100846.69;5008960;28;20532;-78
2022/12/22 14:27:16;;;;;;;25.88;9.65;;;;;;;10.35;72.41;100824.31;5007550;28;20050;-76
2022/12/22 14:29:42;;;;;;;20.60;8.55;;;;;;;10.44;72.54;100850.50;5007458;28;20029;-76
2022/12/22 14:32:08;;;;;;;22.88;8.88;;;;;;;10.28;73.03;100796.19;5007402;28;20069;-76
2022/12/22 14:34:34;;;;;;;27.30;9.82;;;;;;;10.54;72.51;100837.19;5042261;28;20044;-76
2022/12/22 14:37:00;;;;;;;34.00;9.90;;;;;;;10.52;73.28;100850.75;5050338;28;20025;-77
2022/12/22 14:39:31;;;;;;;29.95;12.25;;;;;;;10.48;73.55;100851.97;5050896;28;20025;-76
2022/12/22 14:42:10;;;;;;;55.08;13.23;;;;;;;10.44;73.64;100834.34;5049811;28;20029;-79
2022/12/22 14:44:43;;;;;;;21.42;10.98;;;;;;;10.40;73.59;100829.34;5049160;28;20520;-77
2022/12/22 14:47:16;;;;;;;47.28;13.02;;;;;;;10.52;73.14;100845.38;5048031;28;20531;-77
2022/12/22 14:49:44;;;;;;;;;;;;;;;10.49;73.37;100848.28;5048593;28;20049;-77
2022/12/22 14:52:34;;;;;;;51.83;12.30;;;;;;;10.54;73.56;100839.88;5049723;28;19978;-76
2022/12/22 14:55:02;;;;;;;28.63;11.73;;;;;;;10.52;72.85;100834.59;5026824;28;20045;-78
2022/12/22 14:57:36;;;;;;;30.40;11.45;;;;;;;10.57;72.87;100829.75;5035315;28;20049;-78
2022/12/22 15:00:22;;;;;;;57.63;23.70;;;;;;;10.60;72.59;100840.28;5039009;28;20072;-79
2022/12/22 15:02:52;;;;;;;44.80;14.77;;;;;;;10.58;72.47;100842.19;5032009;28;20061;-79
2022/12/22 15:05:36;;;;;;;50.80;17.52;;;;;;;10.48;72.24;100827.78;5009702;28;20508;-77
2022/12/22 15:08:04;;;;;;;77.68;18.55;;;;;;;10.59;72.55;100837.69;5027147;28;20447;-78
2022/12/22 15:10:37;;;;;;;35.58;15.23;;;;;;;10.57;72.36;100839.66;5026849;28;20045;-79